• Join FlightAware (Why Join?)
  • Login
  • US Flag 
04:56PM EDT


 

Airport Tracker/Info


-or-


 

Live Flight TrackerFlight Track Log ✈ CFS671 ✈ 20-Aug-2013 ✈ KLMT - KPDX

Flight Track Log - Related Links

Times and Time Zones

All times are in EDT time to prevent confusion due to time zone crossing. See the CFS671 flight status page for this flight to view local times or setup timezone preferences in your user account.

Time Position Orientation Groundspeed Altitude Reporting Facility
EDT Latitude Longitude Course Direction KTS MPH feet Rate Location/Type
07:26PM 42.3092 -121.7867 351° North 152 175 7,100  Level Seattle Center
07:27PM 42.3506 -121.7956 351° North 151 174 7,600 480 Climbing Seattle Center
07:28PM 42.4006 -121.8069 350° North 152 175 8,100 420 Climbing Seattle Center
07:29PM 42.4433 -121.8200 347° North 154 177 8,500 480 Climbing Seattle Center
07:30PM 42.4847 -121.8311 349° North 154 177 9,100 420 Climbing Seattle Center
07:31PM 42.5267 -121.8419 349° North 154 177 9,400 300 Climbing Seattle Center
07:32PM 42.5689 -121.8544 348° North 154 177 9,800 420 Climbing Seattle Center
07:33PM 42.6108 -121.8664 348° North 155 178 10,300 240 Climbing Seattle Center
07:34PM 42.6539 -121.8783 348° North 156 180 10,400  Climbing Seattle Center
07:35PM 42.7006 -121.8917 348° North 163 188 10,400  Level Seattle Center
07:36PM 42.7483 -121.9061 347° North 173 199 10,400  Level Seattle Center
07:37PM 42.8056 -121.9206 350° North 173 199 10,400  Level Seattle Center
07:38PM 42.8533 -121.9367 346° North 175 201 10,400  Level Seattle Center
07:39PM 42.9011 -121.9511 348° North 178 205 10,400  Level Seattle Center
07:40PM 42.9483 -121.9669 346° North 176 203 10,400  Level Seattle Center
07:41PM 42.9972 -121.9803 349° North 177 204 10,400  Level Seattle Center
07:42PM 43.0456 -121.9919 350° North 178 205 10,400  Level Seattle Center
07:43PM 43.0928 -122.0081 346° North 176 203 10,400  Level Seattle Center
07:44PM 43.1406 -122.0192 350° North 174 200 10,400  Level Seattle Center
07:45PM 43.1892 -122.0328 348° North 178 205 10,400  Level Seattle Center
07:46PM 43.2383 -122.0481 347° North 181 208 10,400  Level Seattle Center
07:47PM 43.2922 -122.0628 349° North 178 205 10,400  Level Seattle Center
07:48PM 43.3406 -122.0792 346° North 179 206 10,400  Level Seattle Center
07:49PM 43.3889 -122.0925 349° North 178 205 10,400  Level Seattle Center
07:50PM 43.4400 -122.1056 349° North 185 213 10,400  Level Seattle Center
07:51PM 43.4869 -122.1206 347° North 177 204 10,400  Level Seattle Center
07:52PM 43.5342 -122.1347 348° North 174 200 10,400  Level Seattle Center
07:53PM 43.5817 -122.1483 348° North 175 201 10,400  Level Seattle Center
07:54PM 43.6392 -122.1653 348° North 176 203 10,400  Level Seattle Center
07:55PM 43.6886 -122.1792 349° North 179 206 10,400  Level Seattle Center
07:56PM 43.7386 -122.1925 349° North 183 211 10,400  Level Seattle Center
07:57PM 43.7875 -122.2064 348° North 182 209 10,400  Level Seattle Center
07:58PM 43.8350 -122.2214 347° North 178 205 10,500  Climbing Seattle Center
07:59PM 43.8828 -122.2350 348° North 178 205 10,500  Level Seattle Center
08:00PM 43.9300 -122.2503 347° North 175 201 10,500  Level Seattle Center
08:01PM 43.9778 -122.2639 348° North 175 201 10,500 -60 Level Seattle Center
08:02PM 44.0253 -122.2783 348° North 175 201 10,400 -60 Descending Seattle Center
08:03PM 44.0742 -122.2928 348° North 178 205 10,400  Level Seattle Center
08:04PM 44.1300 -122.3092 348° North 174 200 10,400  Level Seattle Center
08:05PM 44.1783 -122.3233 348° North 175 201 10,400  Level Seattle Center
08:06PM 44.2258 -122.3383 347° North 176 203 10,400  Level Seattle Center
08:07PM 44.2725 -122.3522 348° North 173 199 10,400  Level Seattle Center
08:08PM 44.3203 -122.3661 348° North 175 201 10,400  Level Seattle Center
08:09PM 44.3678 -122.3808 348° North 175 201 10,400  Level Seattle Center
08:10PM 44.4139 -122.3953 347° North 172 198 10,400  Level Seattle Center
08:11PM 44.4617 -122.4083 349° North 174 200 10,400  Level Seattle Center
08:12PM 44.5064 -122.4211 348° North 166 191 10,400  Level Seattle Center
08:14PM 44.5508 -122.4353 347° North 164 189 10,400  Level Seattle Center
08:15PM 44.6039 -122.4533 346° North 163 188 10,400  Level Seattle Center
08:16PM 44.6481 -122.4661 348° North 163 188 10,500  Climbing Seattle Center
08:17PM 44.6925 -122.4794 348° North 164 189 10,500 -60 Level Seattle Center
08:18PM 44.7331 -122.4906 349° North 150 173 10,400 -240 Descending Seattle Center
08:18PM 44.7550 -122.5008 342° North 133 153 10,200 -420 Descending Seattle Center
08:19PM 44.7786 -122.5097 345° North 138 159 9,900 -360 Descending Seattle Center
08:20PM 44.8058 -122.5139 354° North 136 157 9,700 -420 Descending Seattle Center
08:21PM 44.8417 -122.5247 348° North 133 153 9,200 -540 Descending Seattle Center
08:22PM 44.8961 -122.5444 346° North 151 174 8,600 -420 Descending Seattle Center
08:23PM 44.9233 -122.5508 351° North 146 168 8,400 -240 Descending Seattle Center
08:24PM 44.9703 -122.5639 349° North 158 182 8,200 -360 Descending Seattle Center
08:25PM 45.0156 -122.5769 348° North 164 189 7,700 -660 Descending Seattle Center
08:26PM 45.0689 -122.5942 347° North 165 190 6,900 -660 Descending Seattle Center
08:27PM 45.1153 -122.6072 349° North 167 192 6,400 -540 Descending Seattle Center
08:28PM 45.1611 -122.6119 356° North 167 192 5,800 -600 Descending Seattle Center
08:29PM 45.2075 -122.6083 North 170 196 5,200 -600 Descending Seattle Center
08:30PM 45.2519 -122.5922 14° North 169 194 4,700 -540 Descending Seattle Center
08:31PM 45.2956 -122.5808 10° North 165 190 4,100 -540 Descending Seattle Center
08:32PM 45.3394 -122.5753 North 161 185 3,600 -600 Descending Seattle Center
08:33PM 45.3783 -122.5606 15° North 155 178 3,000 -480 Descending Seattle Center
08:34PM 45.4142 -122.5522 North 141 162 2,700 -300 Descending Seattle Center
08:35PM 45.4572 -122.5581 355° North 131 151 2,500 -180 Descending Seattle Center
08:36PM 45.4961 -122.5586 359° North 135 155 2,400 -300 Descending Seattle Center
08:37PM 45.5247 -122.5914 321° Northwest 144 166 1,900 -240 Descending Seattle Center
08:38PM 45.5297 -122.5469 81° East 128 147 1,900 -240 Level Seattle Center
08:39PM 45.5428 -122.5200 55° Northeast 129 148 1,500 -420 Descending Seattle Center
08:40PM 45.5622 -122.5400 324° Northwest 116 133 1,100 -540 Descending Seattle Center
08:41PM 45.5794 -122.5792 302° West 112 129 400 -720 Descending Seattle Center